createdAt,value
2023-04-04T05:02:26.344Z,2.10
2023-04-04T05:07:32.022Z,1.80
2023-04-04T05:12:37.132Z,2.00
2023-04-04T05:17:42.137Z,1.70
2023-04-04T05:22:46.501Z,1.85
2023-04-04T05:27:50.929Z,1.60
2023-04-04T05:32:56.919Z,2.12
2023-04-04T05:38:01.670Z,2.03
2023-04-04T05:43:06.714Z,2.28
2023-04-04T05:48:12.652Z,2.10
2023-04-04T05:53:21.188Z,1.77
2023-04-04T05:58:26.401Z,2.12
2023-04-04T06:03:31.897Z,2.05
2023-04-04T06:08:46.651Z,2.28
2023-04-04T06:13:55.134Z,2.00
2023-04-04T06:19:01.144Z,2.33
2023-04-04T06:24:05.215Z,1.90
2023-04-04T06:29:09.396Z,1.87
2023-04-04T06:34:14.894Z,1.55
2023-04-04T06:39:21.200Z,1.62
2023-04-04T06:44:25.745Z,1.73
2023-04-04T06:49:30.835Z,1.70
2023-04-04T06:54:34.720Z,2.17
2023-04-04T06:59:38.365Z,2.20
2023-04-04T07:04:43.380Z,1.83
2023-04-04T07:09:47.289Z,1.90
2023-04-04T07:14:50.885Z,2.00
2023-04-04T07:19:55.936Z,1.93
2023-04-04T07:24:59.821Z,2.05
2023-04-04T07:30:03.776Z,1.48
2023-04-04T07:35:09.759Z,1.60
2023-04-04T07:40:13.893Z,1.50
2023-04-04T07:45:17.813Z,2.05
2023-04-04T07:50:22.771Z,1.95
2023-04-04T07:55:26.912Z,1.48
2023-04-04T08:00:30.808Z,2.00
2023-04-04T08:05:35.767Z,1.83
2023-04-04T08:10:39.958Z,1.33
2023-04-04T08:20:48.619Z,1.23
2023-04-04T08:25:52.883Z,1.37
2023-04-04T08:30:56.891Z,1.50
2023-04-04T08:36:01.968Z,1.02
2023-04-04T08:41:05.935Z,1.10
2023-04-04T08:46:11.523Z,0.80
2023-04-04T08:51:18.734Z,1.02
2023-04-04T08:56:22.648Z,1.25
2023-04-04T09:01:29.792Z,0.70
2023-04-04T09:06:35.247Z,1.00
2023-04-04T09:11:41.476Z,0.93
2023-04-04T09:16:45.954Z,0.80
2023-04-04T09:21:51.695Z,1.02
2023-04-04T09:26:58.231Z,0.98
2023-04-04T09:32:02.249Z,1.00
2023-04-04T09:37:07.676Z,1.20
2023-04-04T09:42:12.353Z,1.23
2023-04-04T09:52:35.845Z,0.90
2023-04-04T09:57:41.025Z,0.98
2023-04-04T10:02:50.367Z,1.23
2023-04-04T10:07:55.850Z,1.02
2023-04-04T10:12:59.935Z,0.65
2023-04-04T10:18:04.808Z,1.25
2023-04-04T10:23:10.042Z,0.77
2023-04-04T10:28:14.039Z,0.95
2023-04-04T10:33:27.208Z,1.05
2023-04-04T10:38:41.861Z,1.30
2023-04-04T10:43:48.600Z,0.70
2023-04-04T10:48:52.538Z,0.85
2023-04-04T10:53:57.653Z,0.80
2023-04-04T10:59:13.453Z,0.57
2023-04-04T11:04:20.338Z,0.62
2023-04-04T11:09:54.030Z,0.80
2023-04-04T11:15:10.335Z,0.40
2023-04-04T11:20:17.910Z,0.47
2023-04-04T11:25:31.710Z,0.50
2023-04-04T11:30:48.229Z,0.45
2023-04-04T11:35:51.965Z,0.88
2023-04-04T11:40:57.085Z,0.75
2023-04-04T11:46:09.020Z,0.88
2023-04-04T11:51:13.016Z,0.50
2023-04-04T11:56:18.375Z,0.82
2023-04-04T12:01:22.306Z,0.85
2023-04-04T12:06:27.237Z,0.65
2023-04-04T12:11:34.878Z,0.93
2023-04-04T12:16:39.583Z,0.47
2023-04-04T12:21:43.703Z,0.82
2023-04-04T12:31:56.500Z,0.52
2023-04-04T12:37:01.858Z,0.88
2023-04-04T12:42:07.646Z,0.88
2023-04-04T12:47:14.116Z,0.90
2023-04-04T12:52:19.707Z,0.50
2023-04-04T12:57:27.669Z,0.80
2023-04-04T13:02:31.512Z,0.77
2023-04-04T13:07:43.109Z,0.40
2023-04-04T13:13:00.289Z,0.60
2023-04-04T13:18:15.702Z,0.60
2023-04-04T13:23:20.535Z,0.90
2023-04-04T13:28:26.319Z,0.32
2023-04-04T13:33:30.989Z,0.77
2023-04-04T13:38:36.151Z,0.80
2023-04-04T13:43:41.320Z,0.50
2023-04-04T13:48:45.864Z,0.32
2023-04-04T13:58:54.900Z,0.62
2023-04-04T14:03:58.726Z,1.17
2023-04-04T14:14:07.536Z,0.55
2023-04-04T14:19:11.395Z,0.70
2023-04-04T14:24:15.488Z,0.40
2023-04-04T14:29:20.556Z,1.08
2023-04-04T14:34:26.596Z,0.50
2023-04-04T14:39:30.825Z,0.80
2023-04-04T14:49:40.318Z,1.10
2023-04-04T14:54:44.213Z,1.37
2023-04-04T14:59:49.241Z,0.70
2023-04-04T15:04:52.931Z,0.70
2023-04-04T15:09:57.325Z,0.30
2023-04-04T15:15:02.346Z,0.82
2023-04-04T15:20:07.054Z,0.65
2023-04-04T15:25:11.274Z,0.50
2023-04-04T15:30:17.064Z,1.67
2023-04-04T15:35:21.898Z,0.62
2023-04-04T15:40:25.791Z,0.75
2023-04-04T15:45:30.866Z,0.90
2023-04-04T15:50:34.508Z,1.95
2023-04-04T15:55:38.566Z,0.90
2023-04-04T16:00:47.393Z,1.10
2023-04-04T16:05:51.059Z,0.85
2023-04-04T16:10:54.916Z,0.97
2023-04-04T16:15:59.863Z,0.60
2023-04-04T16:21:04.200Z,1.00
2023-04-04T16:26:08.846Z,0.90
2023-04-04T16:31:15.504Z,1.05
2023-04-04T16:36:19.165Z,1.10
2023-04-04T16:41:22.772Z,1.60
2023-04-04T16:46:28.262Z,1.15
2023-04-04T16:51:32.212Z,1.10
2023-04-04T16:56:36.409Z,1.27
2023-04-04T17:01:41.656Z,1.10
2023-04-04T17:06:46.011Z,1.23
2023-04-04T17:11:49.878Z,1.05
2023-04-04T17:16:55.760Z,1.15
2023-04-04T17:21:59.641Z,1.10
2023-04-04T17:27:03.274Z,1.53
2023-04-04T17:32:08.316Z,1.17
2023-04-04T17:37:13.261Z,1.10
2023-04-04T17:42:16.885Z,1.20
2023-04-04T17:47:21.813Z,0.93
2023-04-04T17:52:25.364Z,1.17
2023-04-04T17:57:28.909Z,1.00
2023-04-04T18:02:33.852Z,1.07
2023-04-04T18:07:37.467Z,0.90
2023-04-04T18:12:41.243Z,0.90
2023-04-04T18:17:46.781Z,1.23
2023-04-04T18:22:50.925Z,1.15
2023-04-04T18:27:54.901Z,1.50
2023-04-04T18:33:00.142Z,3.25
2023-04-04T18:38:04.202Z,1.08
2023-04-04T18:43:08.749Z,1.30
2023-04-04T18:53:17.477Z,1.15
2023-04-04T18:58:21.345Z,1.03
2023-04-04T19:03:27.295Z,1.10
2023-04-04T19:08:31.270Z,1.00
2023-04-04T19:13:35.133Z,1.10
2023-04-04T19:18:40.038Z,1.00
2023-04-04T19:23:43.935Z,1.35
2023-04-04T19:28:47.756Z,1.20
2023-04-04T19:33:55.192Z,1.10
2023-04-04T19:38:59.146Z,1.30
2023-04-04T19:44:03.101Z,1.23
2023-04-04T19:49:12.640Z,1.40
2023-04-04T19:54:16.808Z,1.30
2023-04-04T19:59:48.415Z,1.33
2023-04-04T20:04:54.128Z,1.62
2023-04-04T20:09:58.329Z,2.03
2023-04-04T20:15:02.149Z,1.30
2023-04-04T20:20:12.152Z,1.10
2023-04-04T20:25:40.932Z,1.60
2023-04-04T20:30:44.800Z,1.67
2023-04-04T20:35:50.160Z,1.40
2023-04-04T20:40:54.053Z,1.55
2023-04-04T20:45:57.943Z,1.23
2023-04-04T20:51:03.262Z,1.62
2023-04-04T20:56:12.211Z,1.58
2023-04-04T21:01:16.245Z,1.80
2023-04-04T21:06:28.732Z,1.85
2023-04-04T21:11:35.418Z,1.65
2023-04-04T21:16:39.366Z,1.65
2023-04-04T21:21:44.361Z,1.30
2023-04-04T21:26:49.730Z,1.70
2023-04-04T21:31:55.653Z,1.58
2023-04-04T21:37:03.843Z,1.62
2023-04-04T21:42:09.065Z,1.42
2023-04-04T21:47:14.568Z,1.45
2023-04-04T21:52:20.767Z,1.62
2023-04-04T21:57:24.315Z,1.45
2023-04-04T22:02:27.907Z,1.70
2023-04-04T22:07:33.196Z,1.70
2023-04-04T22:12:39.965Z,1.75
2023-04-04T22:17:43.643Z,1.48
2023-04-04T22:22:48.646Z,1.50
2023-04-04T22:27:52.151Z,1.62
